Time;durP1;ratioP1;P1;durP2;ratioP2;P2;SDS_P1;SDS_P2;PMS_P1;PMS_P2;Temp;Humidity;BMP_temperature;BMP_pressure;BME280_temperature;BME280_humidity;BME280_pressure;Samples;Min_cycle;Max_cycle;Signal;HPM_P1;HPM_P2
2020/12/22 00:00:39;;;;;;;12.53;10.40;;;8.30;99.90;;;;;;5062108;28;20678;-79
2020/12/22 00:03:24;;;;;;;14.50;10.37;;;8.30;99.90;;;;;;5060569;28;20636;-79
2020/12/22 00:06:10;;;;;;;13.73;10.63;;;8.30;99.90;;;;;;5062834;28;20656;-85
2020/12/22 00:08:54;;;;;;;13.30;10.70;;;8.40;99.90;;;;;;5062636;28;20588;-82
2020/12/22 00:11:43;;;;;;;10.70;9.53;;;8.60;99.90;;;;;;5050129;28;20672;-82
2020/12/22 00:14:27;;;;;;;9.87;8.87;;;8.40;99.90;;;;;;5049029;28;21187;-79
2020/12/22 00:17:12;;;;;;;11.90;10.33;;;8.40;99.90;;;;;;5059447;28;20589;-80
2020/12/22 00:19:57;;;;;;;10.53;9.13;;;8.50;99.90;;;;;;5062603;28;20651;-82
2020/12/22 00:22:47;;;;;;;11.20;9.67;;;8.50;99.90;;;;;;5070142;28;20653;-82
2020/12/22 00:25:40;;;;;;;10.03;9.10;;;8.50;99.90;;;;;;5055720;28;20673;-80
2020/12/22 00:28:27;;;;;;;10.60;9.50;;;8.50;99.90;;;;;;5066074;28;20628;-79
2020/12/22 00:31:12;;;;;;;10.53;9.43;;;8.50;99.90;;;;;;5052625;28;20632;-79
2020/12/22 00:33:56;;;;;;;11.47;10.27;;;8.50;99.90;;;;;;5055818;28;20772;-79
2020/12/22 00:36:41;;;;;;;11.40;9.83;;;8.50;99.90;;;;;;5069653;28;21050;-84
2020/12/22 00:39:27;;;;;;;10.43;9.00;;;8.50;99.90;;;;;;5058101;28;20637;-80
2020/12/22 00:42:15;;;;;;;10.67;9.60;;;8.70;99.90;;;;;;5059065;28;20687;-82
2020/12/22 00:45:00;;;;;;;9.93;8.93;;;8.70;99.90;;;;;;5056883;28;20660;-81
2020/12/22 00:47:48;;;;;;;10.73;9.60;;;8.60;99.90;;;;;;5058328;28;20580;-80
2020/12/22 00:50:33;;;;;;;9.60;8.70;;;8.70;99.90;;;;;;5042011;28;21113;-79
2020/12/22 00:53:17;;;;;;;9.23;8.30;;;8.60;99.90;;;;;;5050731;28;21288;-79
2020/12/22 00:56:02;;;;;;;9.87;8.87;;;8.60;99.90;;;;;;5059655;28;20648;-81
2020/12/22 00:58:46;;;;;;;10.37;9.17;;;8.60;99.90;;;;;;5062210;28;20640;-79
2020/12/22 01:01:31;;;;;;;9.80;8.80;;;8.70;99.90;;;;;;5055125;28;20736;-80
2020/12/22 01:04:15;;;;;;;9.10;8.20;;;8.70;99.90;;;;;;5052055;28;20706;-79
2020/12/22 01:07:05;;;;;;;9.50;8.50;;;8.80;99.90;;;;;;5058973;28;21063;-81
2020/12/22 01:09:50;;;;;;;10.80;9.50;;;8.70;99.90;;;;;;5071236;28;20621;-81
2020/12/22 01:12:35;;;;;;;10.13;9.03;;;8.70;99.90;;;;;;5067105;28;20728;-79
2020/12/22 01:15:21;;;;;;;10.23;9.20;;;8.70;99.90;;;;;;5049611;28;21065;-78
2020/12/22 01:18:05;;;;;;;11.70;10.60;;;8.80;99.90;;;;;;5059297;28;20999;-79
2020/12/22 01:20:49;;;;;;;9.57;8.40;;;8.80;99.90;;;;;;5051179;28;20617;-81
2020/12/22 01:23:35;;;;;;;10.37;9.27;;;8.80;99.90;;;;;;5050236;28;20691;-83
2020/12/22 01:26:21;;;;;;;9.87;8.70;;;8.80;99.90;;;;;;5054881;28;20872;-79
2020/12/22 01:29:08;;;;;;;10.00;9.00;;;8.90;99.90;;;;;;5060744;28;20715;-79
2020/12/22 01:31:54;;;;;;;9.70;7.60;;;9.00;99.90;;;;;;5067858;28;20695;-82
2020/12/22 01:34:39;;;;;;;9.03;8.13;;;9.00;99.90;;;;;;5069367;28;21223;-79
2020/12/22 01:37:24;;;;;;;8.57;7.70;;;9.00;99.90;;;;;;5060097;28;20621;-80
2020/12/22 01:40:08;;;;;;;8.10;7.30;;;9.00;99.90;;;;;;5064549;28;21127;-80
2020/12/22 01:42:53;;;;;;;9.23;8.27;;;9.20;99.90;;;;;;5054880;28;20644;-81
2020/12/22 01:45:37;;;;;;;9.30;8.40;;;9.00;99.90;;;;;;5056213;28;20710;-80
2020/12/22 01:48:22;;;;;;;8.60;7.80;;;9.00;99.90;;;;;;5061749;28;20616;-79
2020/12/22 01:51:07;;;;;;;11.70;8.07;;;9.10;99.90;;;;;;5053619;28;21158;-84
2020/12/22 01:53:52;;;;;;;9.03;7.93;;;9.10;99.90;;;;;;5061512;28;20690;-79
2020/12/22 01:56:38;;;;;;;7.67;6.87;;;9.10;99.90;;;;;;5056131;28;20624;-80
2020/12/22 01:59:23;;;;;;;9.60;8.60;;;9.00;99.90;;;;;;5061109;28;20647;-79
2020/12/22 02:02:08;;;;;;;8.30;7.30;;;9.00;99.90;;;;;;5055195;28;20636;-79
2020/12/22 02:04:56;;;;;;;9.60;7.80;;;9.10;99.90;;;;;;5075007;28;20656;-80
2020/12/22 02:07:41;;;;;;;8.10;7.30;;;9.10;99.90;;;;;;5062173;28;20955;-78
2020/12/22 02:10:26;;;;;;;8.80;7.90;;;9.20;99.90;;;;;;5057876;28;20796;-80
2020/12/22 02:13:10;;;;;;;8.43;7.53;;;9.20;99.90;;;;;;5046657;28;20631;-79
2020/12/22 02:15:54;;;;;;;8.00;7.20;;;9.30;99.90;;;;;;5061655;28;20996;-79
2020/12/22 02:18:39;;;;;;;8.50;7.50;;;9.30;99.90;;;;;;5063316;28;20637;-79
2020/12/22 02:21:24;;;;;;;8.00;7.20;;;9.20;99.90;;;;;;5056187;28;20711;-79
2020/12/22 02:24:09;;;;;;;8.30;7.30;;;9.20;99.90;;;;;;5049920;28;20798;-80
2020/12/22 02:26:54;;;;;;;8.00;7.03;;;9.20;99.90;;;;;;5044027;28;20601;-80
2020/12/22 02:29:38;;;;;;;11.60;6.90;;;9.40;99.90;;;;;;5060358;28;20577;-78
2020/12/22 02:32:22;;;;;;;8.40;7.50;;;9.20;99.90;;;;;;5050153;28;20644;-81
2020/12/22 02:35:07;;;;;;;9.70;7.83;;;9.20;99.90;;;;;;5062603;28;20707;-78
2020/12/22 02:37:53;;;;;;;7.67;6.90;;;9.30;99.90;;;;;;5053410;28;20935;-80
2020/12/22 02:40:37;;;;;;;8.80;7.27;;;9.30;99.90;;;;;;5063825;28;20604;-78
2020/12/22 02:43:22;;;;;;;8.00;6.90;;;9.20;99.90;;;;;;5045187;28;20624;-80
2020/12/22 02:46:07;;;;;;;8.37;7.30;;;9.30;99.90;;;;;;5047741;28;20726;-81
2020/12/22 02:48:51;;;;;;;7.13;6.33;;;9.40;99.90;;;;;;5051109;28;20572;-78
2020/12/22 02:51:36;;;;;;;6.80;6.10;;;9.40;99.90;;;;;;5048767;28;20648;-79
2020/12/22 02:54:20;;;;;;;7.23;6.53;;;9.40;99.90;;;;;;5050668;28;20723;-79
2020/12/22 02:57:05;;;;;;;7.70;6.80;;;9.50;99.90;;;;;;5049975;28;20941;-79
2020/12/22 02:59:51;;;;;;;7.40;6.10;;;9.40;99.90;;;;;;5054699;28;20949;-79
2020/12/22 03:02:36;;;;;;;7.60;6.33;;;9.50;99.90;;;;;;5054998;28;20746;-78
2020/12/22 03:05:23;;;;;;;6.30;5.53;;;9.70;99.90;;;;;;5065210;23;21248;-67
2020/12/22 03:08:08;;;;;;;6.47;5.87;;;9.60;99.90;;;;;;5042266;28;20605;-69
2020/12/22 03:10:53;;;;;;;7.10;6.40;;;9.60;99.90;;;;;;5036600;28;20760;-67
2020/12/22 03:13:38;;;;;;;6.37;5.77;;;9.60;99.90;;;;;;5054148;28;21262;-67
2020/12/22 03:16:22;;;;;;;6.83;6.10;;;9.60;99.90;;;;;;5062753;28;20660;-67
2020/12/22 03:19:06;;;;;;;6.93;6.23;;;9.60;99.90;;;;;;5065025;28;20632;-67
2020/12/22 03:21:51;;;;;;;7.33;5.80;;;9.70;99.90;;;;;;5062292;28;20627;-67
2020/12/22 03:24:35;;;;;;;7.03;6.33;;;9.70;99.90;;;;;;5066331;28;20934;-67
2020/12/22 03:27:19;;;;;;;6.67;6.07;;;9.70;99.90;;;;;;5068181;28;20558;-70
2020/12/22 03:30:09;;;;;;;6.27;5.67;;;9.70;99.90;;;;;;5062144;28;20580;-67
2020/12/22 03:32:54;;;;;;;5.97;5.10;;;9.70;99.90;;;;;;5068411;28;20682;-67
2020/12/22 03:35:38;;;;;;;5.83;5.23;;;9.70;99.90;;;;;;5070374;28;20817;-67
2020/12/22 03:38:23;;;;;;;5.50;5.00;;;9.80;99.90;;;;;;5077063;28;20584;-67
2020/12/22 03:41:07;;;;;;;6.47;5.40;;;9.80;99.90;;;;;;5066091;28;20853;-69
2020/12/22 03:43:52;;;;;;;5.60;5.10;;;9.80;99.90;;;;;;5082259;28;20685;-67
2020/12/22 03:46:38;;;;;;;5.13;4.47;;;9.90;99.90;;;;;;5065095;28;20647;-67
2020/12/22 03:49:23;;;;;;;5.20;4.70;;;9.90;99.90;;;;;;5068760;28;20624;-68
2020/12/22 03:52:07;;;;;;;5.60;4.63;;;9.90;99.90;;;;;;5068620;28;21213;-67
2020/12/22 03:54:52;;;;;;;4.60;4.20;;;9.90;99.90;;;;;;5073103;28;20652;-67
2020/12/22 03:57:37;;;;;;;5.73;4.63;;;10.00;99.90;;;;;;5062280;28;20701;-67
2020/12/22 04:00:22;;;;;;;5.30;4.80;;;10.00;99.90;;;;;;5077530;28;20717;-67
2020/12/22 04:03:07;;;;;;;5.10;4.27;;;10.00;99.90;;;;;;5071135;28;20635;-68
2020/12/22 04:05:51;;;;;;;5.20;4.07;;;10.00;99.90;;;;;;5068111;28;20810;-67
2020/12/22 04:08:36;;;;;;;4.90;4.40;;;10.10;99.90;;;;;;5072090;28;20608;-68
2020/12/22 04:11:21;;;;;;;4.70;4.20;;;10.10;99.90;;;;;;5071517;28;20745;-67
2020/12/22 04:14:10;;;;;;;4.40;4.00;;;10.10;99.90;;;;;;5076050;28;20657;-67
2020/12/22 04:16:54;;;;;;;4.40;4.10;;;10.10;99.90;;;;;;5074384;28;20647;-67
2020/12/22 04:19:39;;;;;;;4.33;4.03;;;10.20;99.90;;;;;;5077090;28;21189;-67
2020/12/22 04:22:23;;;;;;;3.53;3.27;;;10.30;99.90;;;;;;5070918;28;20725;-67
2020/12/22 04:25:08;;;;;;;3.80;3.50;;;10.40;99.90;;;;;;5068208;28;20655;-67
2020/12/22 04:27:52;;;;;;;4.10;3.70;;;10.30;99.90;;;;;;5071326;28;20661;-67
2020/12/22 04:30:36;;;;;;;2.93;2.73;;;10.30;99.90;;;;;;5068708;28;21156;-67
2020/12/22 04:33:21;;;;;;;3.27;2.97;;;10.40;99.90;;;;;;5076337;28;20772;-68
2020/12/22 04:36:05;;;;;;;3.13;2.83;;;10.40;99.90;;;;;;5070343;28;20652;-67
2020/12/22 04:38:51;;;;;;;2.73;2.53;;;10.40;99.90;;;;;;5083123;28;20608;-67
2020/12/22 04:41:36;;;;;;;2.70;2.50;;;10.40;99.90;;;;;;5068349;28;20639;-67
2020/12/22 04:44:21;;;;;;;2.53;2.33;;;10.50;99.90;;;;;;5070897;28;21178;-68
2020/12/22 04:47:09;;;;;;;2.43;2.23;;;10.60;99.90;;;;;;5071497;28;20593;-67
2020/12/22 04:49:57;;;;;;;2.30;2.10;;;10.60;99.90;;;;;;5067186;28;20711;-67
2020/12/22 04:52:43;;;;;;;1.90;1.80;;;10.60;99.90;;;;;;5082227;28;20643;-67
2020/12/22 04:55:28;;;;;;;1.73;1.47;;;10.60;99.90;;;;;;5087843;28;20663;-67
2020/12/22 04:58:12;;;;;;;2.03;1.70;;;10.70;99.90;;;;;;5055430;28;21166;-67
2020/12/22 05:00:58;;;;;;;1.40;1.30;;;10.70;99.90;;;;;;5064143;28;20621;-67
2020/12/22 05:03:43;;;;;;;1.80;1.20;;;10.70;99.90;;;;;;5074585;28;21149;-67
2020/12/22 05:06:30;;;;;;;2.17;1.47;;;10.80;99.90;;;;;;5075097;28;20705;-67
2020/12/22 05:09:14;;;;;;;1.90;1.47;;;10.90;99.90;;;;;;5068577;28;20857;-67
2020/12/22 05:11:59;;;;;;;1.40;1.30;;;11.00;99.90;;;;;;5084841;28;20636;-69
2020/12/22 05:14:46;;;;;;;1.30;1.10;;;11.00;99.90;;;;;;5073002;28;21129;-67
2020/12/22 05:17:31;;;;;;;1.47;1.37;;;11.10;99.90;;;;;;5091960;28;20660;-68
2020/12/22 05:20:20;;;;;;;1.60;1.50;;;11.10;99.90;;;;;;5075112;28;20656;-68
2020/12/22 05:23:14;;;;;;;1.70;1.60;;;11.20;99.90;;;;;;5075959;28;20652;-67
2020/12/22 05:25:59;;;;;;;2.00;1.90;;;11.20;99.90;;;;;;5069058;28;20712;-67
2020/12/22 05:28:45;;;;;;;2.07;1.87;;;11.30;99.90;;;;;;5070459;28;20599;-68
2020/12/22 05:31:35;;;;;;;1.67;1.57;;;11.30;99.90;;;;;;5061516;28;21089;-67
2020/12/22 05:34:20;;;;;;;1.80;1.70;;;11.40;99.90;;;;;;5074940;28;20988;-67
2020/12/22 05:37:08;;;;;;;2.40;2.20;;;11.40;99.90;;;;;;5073575;28;20603;-67
2020/12/22 05:39:53;;;;;;;2.50;2.30;;;11.50;99.90;;;;;;5061190;28;20776;-67
2020/12/22 05:42:42;;;;;;;2.70;2.50;;;11.50;99.90;;;;;;5060798;28;20809;-67
2020/12/22 05:45:34;;;;;;;3.20;2.90;;;11.50;99.90;;;;;;5067985;28;20648;-67
2020/12/22 05:48:19;;;;;;;3.60;3.30;;;11.60;99.90;;;;;;5067338;28;20599;-67
2020/12/22 05:51:08;;;;;;;3.53;3.23;;;11.60;99.90;;;;;;5066732;28;20890;-67
2020/12/22 05:54:07;;;;;;;4.13;3.73;;;11.60;99.90;;;;;;5070247;28;20620;-67
2020/12/22 05:57:05;;;;;;;6.20;4.60;;;11.70;99.90;;;;;;5060508;28;20985;-67
2020/12/22 05:59:51;;;;;;;6.03;5.43;;;11.70;99.90;;;;;;5072486;28;20616;-67
2020/12/22 06:02:39;;;;;;;7.40;5.87;;;11.80;99.90;;;;;;5064179;28;21301;-67
2020/12/22 06:05:24;;;;;;;6.30;5.70;;;11.80;99.90;;;;;;5085284;28;20710;-67
2020/12/22 06:08:16;;;;;;;6.73;6.03;;;11.80;99.90;;;;;;5062204;28;20718;-68
2020/12/22 06:11:04;;;;;;;7.20;6.50;;;11.90;99.90;;;;;;5059329;28;20631;-67
2020/12/22 06:13:50;;;;;;;6.83;6.13;;;12.00;99.90;;;;;;5068763;28;20930;-68
2020/12/22 06:16:35;;;;;;;8.00;6.80;;;12.00;99.90;;;;;;5069688;28;20651;-67
2020/12/22 06:19:20;;;;;;;7.67;6.97;;;12.00;99.90;;;;;;5084589;28;20623;-67
2020/12/22 06:22:07;;;;;;;7.80;7.00;;;12.10;99.90;;;;;;5076026;28;20655;-67
2020/12/22 06:24:53;;;;;;;8.20;7.40;;;12.20;99.90;;;;;;5076901;28;20631;-67
2020/12/22 06:27:37;;;;;;;7.40;6.70;;;12.20;99.90;;;;;;5088125;28;20603;-67
2020/12/22 06:30:41;;;;;;;7.87;7.07;;;12.20;99.90;;;;;;5074391;28;20967;-68
2020/12/22 06:33:28;;;;;;;7.87;7.07;;;12.30;99.90;;;;;;5103116;28;20750;-68
2020/12/22 06:36:14;;;;;;;8.73;7.57;;;12.30;99.90;;;;;;5083450;28;21598;-68
2020/12/22 06:39:01;;;;;;;10.40;8.00;;;12.30;99.90;;;;;;5077778;28;20587;-68
2020/12/22 06:41:46;;;;;;;9.50;8.10;;;12.30;99.90;;;;;;5076780;28;20678;-69
2020/12/22 06:44:34;;;;;;;9.43;7.90;;;12.30;99.90;;;;;;5071729;28;20615;-69
2020/12/22 06:47:34;;;;;;;7.60;6.77;;;12.50;99.90;;;;;;5089490;28;20673;-68
2020/12/22 06:50:44;;;;;;;7.80;6.93;;;12.40;99.90;;;;;;5069274;28;21075;-68
2020/12/22 06:53:38;;;;;;;7.20;6.50;;;12.40;99.90;;;;;;5065568;28;20643;-68
2020/12/22 06:56:47;;;;;;;7.30;6.60;;;12.40;99.90;;;;;;5077431;28;20655;-68
2020/12/22 06:59:40;;;;;;;6.93;6.23;;;12.60;99.90;;;;;;5092250;28;20970;-68
2020/12/22 07:02:29;;;;;;;7.50;6.80;;;12.60;99.90;;;;;;5079576;28;20645;-68
2020/12/22 07:05:34;;;;;;;7.40;5.97;;;12.70;99.90;;;;;;5044670;28;21104;-68
2020/12/22 07:08:21;;;;;;;6.67;5.97;;;12.70;99.90;;;;;;5068198;28;20611;-68
2020/12/22 07:11:19;;;;;;;6.10;5.60;;;12.70;99.90;;;;;;5063045;28;20639;-68
2020/12/22 07:14:05;;;;;;;6.13;4.47;;;12.70;99.90;;;;;;5066663;28;20587;-69
2020/12/22 07:16:54;;;;;;;5.40;4.90;;;12.80;99.90;;;;;;5091113;28;20729;-68
2020/12/22 07:19:42;;;;;;;4.33;4.00;;;12.70;99.90;;;;;;5073643;28;20638;-69
2020/12/22 07:22:27;;;;;;;4.73;4.33;;;12.80;99.90;;;;;;5069064;28;20682;-69
2020/12/22 07:25:11;;;;;;;3.53;3.23;;;12.80;99.90;;;;;;5069059;28;20870;-69
2020/12/22 07:27:56;;;;;;;3.13;2.90;;;12.80;99.90;;;;;;5082319;28;20631;-69
2020/12/22 07:30:40;;;;;;;3.47;3.23;;;12.90;99.90;;;;;;5082090;28;20592;-68
2020/12/22 07:33:25;;;;;;;4.10;3.70;;;12.90;99.90;;;;;;5072650;28;20600;-68
2020/12/22 07:36:12;;;;;;;2.97;2.77;;;12.80;99.90;;;;;;5065029;28;20668;-69
2020/12/22 07:39:22;;;;;;;4.00;3.70;;;12.90;99.90;;;;;;5064497;28;20758;-69
2020/12/22 07:42:13;;;;;;;2.60;2.40;;;12.80;99.90;;;;;;5078213;28;20769;-69
2020/12/22 07:45:06;;;;;;;2.73;2.40;;;12.80;99.90;;;;;;5061000;28;20636;-69
2020/12/22 07:47:51;;;;;;;2.20;2.10;;;12.90;99.90;;;;;;5070668;28;20678;-69
2020/12/22 07:50:35;;;;;;;2.20;2.00;;;12.90;99.90;;;;;;5084883;28;21158;-68
2020/12/22 07:53:20;;;;;;;1.97;1.87;;;13.00;99.90;;;;;;5081026;28;20715;-68
2020/12/22 07:56:05;;;;;;;1.90;1.80;;;13.10;99.90;;;;;;5085587;28;20655;-68
2020/12/22 07:58:54;;;;;;;1.87;1.77;;;13.10;99.90;;;;;;5078541;28;20672;-68
2020/12/22 08:01:43;;;;;;;1.90;1.60;;;13.00;99.90;;;;;;5055798;28;20663;-69
2020/12/22 08:04:28;;;;;;;3.37;1.97;;;13.00;99.90;;;;;;5077393;28;20902;-69
2020/12/22 08:07:15;;;;;;;1.53;1.43;;;13.00;99.90;;;;;;5062923;28;20695;-69
2020/12/22 08:10:16;;;;;;;2.33;2.13;;;13.00;99.90;;;;;;5080230;28;20774;-69
2020/12/22 08:13:01;;;;;;;1.77;1.67;;;13.10;99.90;;;;;;5067870;28;20642;-68
2020/12/22 08:15:45;;;;;;;2.33;2.07;;;13.10;99.90;;;;;;5068872;28;21096;-69
2020/12/22 08:18:33;;;;;;;1.90;1.80;;;13.20;99.90;;;;;;5061437;28;20608;-68
2020/12/22 08:21:20;;;;;;;1.53;1.43;;;13.20;99.90;;;;;;5061970;28;20652;-69
2020/12/22 08:24:04;;;;;;;1.40;1.30;;;13.30;99.90;;;;;;5071782;28;20603;-69
2020/12/22 08:26:52;;;;;;;1.50;1.40;;;13.20;99.90;;;;;;5072234;28;21029;-69
2020/12/22 08:29:43;;;;;;;1.50;1.30;;;13.20;99.90;;;;;;5065110;28;20644;-69
2020/12/22 08:32:27;;;;;;;1.57;1.47;;;13.20;99.90;;;;;;5069454;28;20640;-69
2020/12/22 08:35:21;;;;;;;1.60;1.50;;;13.30;99.90;;;;;;5055085;28;20687;-68
2020/12/22 08:38:25;;;;;;;1.57;1.47;;;13.20;99.90;;;;;;5065443;28;20632;-70
2020/12/22 08:41:18;;;;;;;1.53;1.43;;;13.30;99.90;;;;;;5063375;28;20758;-70
2020/12/22 08:44:05;;;;;;;2.50;1.87;;;13.30;99.90;;;;;;5064982;28;20613;-71
2020/12/22 08:46:50;;;;;;;1.87;1.77;;;13.30;99.90;;;;;;5067407;28;21111;-71
2020/12/22 08:49:34;;;;;;;2.13;2.03;;;13.30;99.90;;;;;;5066987;28;20644;-70
2020/12/22 08:52:22;;;;;;;2.30;1.87;;;13.30;99.90;;;;;;5066935;28;20782;-70
2020/12/22 08:55:10;;;;;;;2.03;1.93;;;13.30;99.90;;;;;;5057458;28;20886;-69
2020/12/22 08:58:04;;;;;;;1.80;1.70;;;13.30;99.90;;;;;;5072059;28;20604;-68
2020/12/22 09:00:48;;;;;;;2.00;1.90;;;13.30;99.90;;;;;;5079599;28;20709;-70
2020/12/22 09:03:33;;;;;;;2.00;1.90;;;13.40;99.90;;;;;;5065418;28;21142;-70
2020/12/22 09:06:30;;;;;;;1.97;1.87;;;13.40;99.90;;;;;;5060302;22;20705;-70
2020/12/22 09:09:17;;;;;;;1.87;1.77;;;13.40;99.90;;;;;;5019818;28;20666;-70
2020/12/22 09:12:11;;;;;;;2.70;2.00;;;13.40;99.90;;;;;;5031179;28;20634;-70
2020/12/22 09:14:58;;;;;;;1.67;1.57;;;13.40;99.90;;;;;;5018147;28;20620;-70
2020/12/22 09:17:43;;;;;;;1.80;1.47;;;13.40;99.90;;;;;;5024318;28;20610;-69
2020/12/22 09:20:30;;;;;;;1.53;1.43;;;13.40;99.90;;;;;;5022227;28;20643;-68
2020/12/22 09:23:14;;;;;;;1.40;1.27;;;13.40;99.90;;;;;;5030262;28;20651;-69
2020/12/22 09:25:59;;;;;;;1.47;1.37;;;13.40;99.90;;;;;;5026409;28;20645;-70
2020/12/22 09:28:43;;;;;;;1.30;1.20;;;13.40;99.90;;;;;;5023307;28;20961;-69
2020/12/22 09:31:28;;;;;;;1.30;1.20;;;13.30;99.90;;;;;;5017480;28;20643;-70
2020/12/22 09:34:12;;;;;;;1.20;1.10;;;13.40;99.90;;;;;;5024663;28;20654;-69
2020/12/22 09:36:59;;;;;;;1.10;1.00;;;13.30;99.90;;;;;;5027014;28;20991;-69
2020/12/22 09:39:45;;;;;;;0.70;0.70;;;13.40;99.90;;;;;;5016537;28;20949;-69
2020/12/22 09:42:30;;;;;;;0.80;0.80;;;13.50;99.90;;;;;;5030772;28;20635;-68
2020/12/22 09:45:15;;;;;;;0.83;0.83;;;13.60;99.90;;;;;;5022635;28;20649;-68
2020/12/22 09:47:59;;;;;;;0.93;0.93;;;13.60;99.90;;;;;;5013490;28;20719;-69
2020/12/22 09:50:44;;;;;;;1.37;1.27;;;13.40;99.90;;;;;;5021105;28;20607;-68
2020/12/22 09:53:29;;;;;;;0.90;0.90;;;13.50;99.90;;;;;;5020991;28;20588;-69
2020/12/22 09:56:13;;;;;;;1.20;1.10;;;13.40;99.90;;;;;;5023682;28;21263;-69
2020/12/22 09:58:59;;;;;;;1.60;1.50;;;13.40;99.90;;;;;;5012221;28;20631;-69
2020/12/22 10:01:44;;;;;;;1.37;1.27;;;13.30;99.90;;;;;;5023120;28;20650;-68
2020/12/22 10:04:29;;;;;;;2.70;1.47;;;13.30;99.90;;;;;;5030982;28;21168;-69
2020/12/22 10:07:13;;;;;;;1.73;1.53;;;13.40;99.90;;;;;;5027820;28;21032;-69
2020/12/22 10:09:58;;;;;;;3.23;1.40;;;13.40;99.90;;;;;;5025441;28;21216;-69
2020/12/22 10:12:42;;;;;;;1.93;1.70;;;13.40;99.90;;;;;;5027728;28;20715;-69
2020/12/22 10:15:26;;;;;;;2.10;1.90;;;13.40;99.90;;;;;;5023438;28;20653;-69
2020/12/22 10:18:11;;;;;;;3.90;1.70;;;13.50;99.90;;;;;;5030878;28;20642;-69
2020/12/22 10:20:55;;;;;;;2.47;2.00;;;13.40;99.90;;;;;;5026257;28;20681;-68
2020/12/22 10:23:41;;;;;;;2.00;1.73;;;13.50;99.90;;;;;;5043336;28;20599;-71
2020/12/22 10:26:26;;;;;;;2.23;2.10;;;13.50;99.90;;;;;;5022358;28;21722;-68
2020/12/22 10:29:11;;;;;;;1.90;1.80;;;13.40;99.90;;;;;;5026374;28;21268;-69
2020/12/22 10:31:55;;;;;;;2.00;1.90;;;13.30;99.90;;;;;;5023352;28;20626;-69
2020/12/22 10:34:39;;;;;;;1.83;1.40;;;13.30;99.90;;;;;;5029328;28;20661;-68
2020/12/22 10:37:24;;;;;;;0.60;0.60;;;13.40;99.90;;;;;;5020231;28;20582;-67
2020/12/22 10:40:08;;;;;;;0.50;0.50;;;13.30;99.90;;;;;;5016953;28;20649;-68
2020/12/22 10:42:52;;;;;;;0.60;0.60;;;13.20;99.90;;;;;;5028030;28;20716;-68
2020/12/22 10:45:38;;;;;;;0.50;0.40;;;13.30;99.90;;;;;;5028698;28;20741;-68
2020/12/22 10:48:23;;;;;;;1.27;0.50;;;13.20;99.90;;;;;;5027859;28;20579;-67
2020/12/22 10:51:08;;;;;;;0.60;0.50;;;13.10;99.90;;;;;;5022257;28;20639;-67
2020/12/22 10:53:53;;;;;;;0.80;0.67;;;12.90;99.90;;;;;;5032865;28;20585;-69
2020/12/22 10:56:37;;;;;;;0.83;0.67;;;12.80;99.90;;;;;;5031068;28;21080;-68
2020/12/22 10:59:21;;;;;;;0.63;0.60;;;12.80;99.90;;;;;;5025342;28;20611;-68
2020/12/22 11:02:06;;;;;;;1.20;1.10;;;12.70;99.90;;;;;;5017891;28;20643;-69
2020/12/22 11:04:54;;;;;;;2.83;1.47;;;12.50;99.90;;;;;;5025818;28;20603;-68
2020/12/22 11:07:51;;;;;;;1.50;1.40;;;12.20;99.90;;;;;;5025210;28;20630;-69
2020/12/22 11:10:35;;;;;;;2.40;2.20;;;12.10;99.90;;;;;;5024412;28;20622;-68
2020/12/22 11:13:20;;;;;;;3.97;3.00;;;12.00;99.90;;;;;;5027211;28;20693;-68
2020/12/22 11:16:07;;;;;;;3.70;2.30;;;11.80;99.90;;;;;;5029427;28;20713;-69
2020/12/22 11:18:51;;;;;;;3.43;2.90;;;11.80;99.90;;;;;;5024484;28;20638;-68
2020/12/22 11:21:35;;;;;;;4.80;3.00;;;11.80;99.90;;;;;;5022112;28;20665;-69
2020/12/22 11:24:20;;;;;;;3.70;2.90;;;11.80;99.90;;;;;;5028082;28;21273;-71
2020/12/22 11:27:04;;;;;;;5.93;3.80;;;11.60;99.90;;;;;;5027974;28;20674;-72
2020/12/22 11:29:49;;;;;;;4.87;3.63;;;11.50;99.90;;;;;;5025753;28;20614;-71
2020/12/22 11:32:33;;;;;;;5.50;3.83;;;11.40;99.90;;;;;;5018495;28;21146;-70
2020/12/22 11:35:19;;;;;;;5.93;4.03;;;11.40;99.90;;;;;;5026317;28;21076;-69
2020/12/22 11:38:04;;;;;;;5.53;4.10;;;11.40;99.90;;;;;;5025635;28;21245;-69
2020/12/22 11:40:48;;;;;;;6.67;4.53;;;11.40;99.90;;;;;;5032173;28;21433;-68
2020/12/22 11:43:33;;;;;;;6.97;4.00;;;11.30;99.90;;;;;;5020365;28;21071;-70
2020/12/22 11:46:17;;;;;;;6.50;4.20;;;11.40;99.90;;;;;;5020101;28;20663;-70
2020/12/22 11:49:03;;;;;;;4.87;4.30;;;11.40;99.90;;;;;;5019866;28;20958;-70
2020/12/22 11:51:54;;;;;;;8.53;4.67;;;11.30;99.90;;;;;;5016970;28;20708;-69
2020/12/22 11:54:38;;;;;;;7.30;4.83;;;11.30;99.90;;;;;;5025376;28;21269;-69
2020/12/22 11:57:22;;;;;;;7.50;4.20;;;11.40;99.90;;;;;;5028407;28;21014;-70
2020/12/22 12:00:07;;;;;;;6.20;3.77;;;11.40;99.90;;;;;;5027346;28;21216;-68
2020/12/22 12:02:54;;;;;;;5.63;3.20;;;11.30;99.90;;;;;;5021600;28;20633;-70
2020/12/22 12:05:40;;;;;;;6.03;2.90;;;11.30;99.90;;;;;;5043340;28;20638;-70
2020/12/22 12:08:24;;;;;;;4.67;2.80;;;11.40;99.90;;;;;;5018814;28;20627;-70
2020/12/22 12:11:09;;;;;;;7.30;2.50;;;11.20;99.90;;;;;;5011149;28;20631;-70
2020/12/22 12:13:54;;;;;;;6.90;2.93;;;11.10;99.90;;;;;;5020429;28;20591;-70
2020/12/22 12:16:38;;;;;;;7.00;2.53;;;10.90;99.90;;;;;;5022612;28;21252;-70
2020/12/22 12:19:22;;;;;;;3.30;2.07;;;11.00;99.90;;;;;;5028622;28;20615;-69
2020/12/22 12:22:07;;;;;;;4.80;2.10;;;11.00;99.90;;;;;;5013803;28;21309;-70
2020/12/22 12:24:51;;;;;;;2.80;1.87;;;11.00;99.90;;;;;;5022009;28;20598;-73
2020/12/22 12:27:36;;;;;;;5.63;2.53;;;11.00;99.90;;;;;;5024501;28;20625;-69
2020/12/22 12:30:20;;;;;;;3.30;1.70;;;11.10;99.90;;;;;;5013863;28;20584;-73
2020/12/22 12:33:05;;;;;;;3.83;1.57;;;10.90;99.90;;;;;;5033901;28;20740;-70
2020/12/22 12:35:49;;;;;;;2.33;1.40;;;10.80;99.90;;;;;;5021422;28;20657;-69
2020/12/22 12:38:34;;;;;;;5.00;1.40;;;10.80;99.90;;;;;;5025021;28;21248;-70
2020/12/22 12:41:18;;;;;;;3.13;1.17;;;10.80;99.90;;;;;;5031215;28;20662;-69
2020/12/22 12:44:03;;;;;;;2.63;1.63;;;10.80;99.90;;;;;;5029270;28;20619;-69
2020/12/22 12:46:51;;;;;;;2.90;1.13;;;10.80;99.90;;;;;;5015655;28;20975;-68
2020/12/22 12:49:36;;;;;;;1.60;1.50;;;10.80;99.90;;;;;;5016610;28;20599;-69
2020/12/22 12:52:20;;;;;;;2.27;1.00;;;10.80;99.90;;;;;;5036573;28;20638;-69
2020/12/22 12:55:05;;;;;;;2.90;1.10;;;10.90;99.90;;;;;;5038129;28;20630;-69
2020/12/22 12:57:49;;;;;;;3.97;1.47;;;10.90;99.90;;;;;;5023082;28;21188;-69
2020/12/22 13:00:33;;;;;;;2.97;1.20;;;10.90;99.90;;;;;;5024973;28;20754;-69
2020/12/22 13:03:18;;;;;;;4.03;1.63;;;10.90;99.90;;;;;;5024450;28;20732;-69
2020/12/22 13:06:06;;;;;;;4.40;1.63;;;10.80;99.90;;;;;;5013507;28;21036;-69
2020/12/22 13:08:50;;;;;;;4.23;1.80;;;10.80;99.90;;;;;;5023040;28;20619;-69
2020/12/22 13:11:34;;;;;;;2.80;1.30;;;10.80;99.90;;;;;;5024017;28;20647;-69
2020/12/22 13:14:19;;;;;;;2.37;1.30;;;10.90;99.90;;;;;;5020584;28;20623;-69
2020/12/22 13:17:04;;;;;;;3.77;1.50;;;10.90;99.90;;;;;;5017063;28;21042;-68
2020/12/22 13:19:49;;;;;;;3.83;1.60;;;11.00;99.90;;;;;;5025450;28;20658;-69
2020/12/22 13:22:33;;;;;;;5.90;1.60;;;11.00;99.90;;;;;;5025507;28;20801;-69
2020/12/22 13:25:18;;;;;;;4.20;1.30;;;11.10;99.90;;;;;;5014035;28;21123;-67
2020/12/22 13:28:02;;;;;;;2.90;1.20;;;11.00;99.90;;;;;;5023254;28;20722;-69
2020/12/22 13:30:47;;;;;;;4.33;2.07;;;11.00;99.90;;;;;;5013642;28;20653;-69
2020/12/22 13:33:31;;;;;;;5.10;1.80;;;11.00;99.90;;;;;;5022533;28;20618;-69
2020/12/22 13:36:16;;;;;;;4.50;1.40;;;10.90;99.90;;;;;;5019644;28;20662;-68
2020/12/22 13:39:00;;;;;;;4.63;1.50;;;10.80;99.90;;;;;;5025514;28;20630;-68
2020/12/22 13:41:45;;;;;;;2.40;1.50;;;10.70;99.90;;;;;;5015943;28;20780;-69
2020/12/22 13:44:30;;;;;;;5.83;1.30;;;10.80;99.90;;;;;;5038559;28;20725;-69
2020/12/22 13:47:15;;;;;;;4.00;1.40;;;10.80;99.90;;;;;;5024299;28;20749;-69
2020/12/22 13:49:59;;;;;;;3.37;1.70;;;10.60;99.90;;;;;;5022243;28;20649;-69
2020/12/22 13:52:44;;;;;;;3.50;1.50;;;10.50;99.90;;;;;;5012198;28;20651;-68
2020/12/22 13:55:29;;;;;;;2.93;1.40;;;10.40;99.90;;;;;;5040605;28;20678;-69
2020/12/22 13:58:15;;;;;;;3.10;1.40;;;10.40;99.90;;;;;;5027183;28;20626;-69
2020/12/22 14:00:59;;;;;;;6.80;1.57;;;10.40;99.90;;;;;;5015607;28;21169;-69
2020/12/22 14:03:44;;;;;;;4.77;1.63;;;10.30;99.90;;;;;;5041967;28;20583;-70
2020/12/22 14:06:28;;;;;;;3.30;1.30;;;10.30;99.90;;;;;;5023058;28;21296;-71
2020/12/22 14:09:13;;;;;;;4.47;1.33;;;10.40;99.90;;;;;;5026180;28;20937;-70
2020/12/22 14:11:57;;;;;;;3.63;1.60;;;10.40;99.90;;;;;;5015915;28;20634;-71
2020/12/22 14:14:42;;;;;;;4.60;1.57;;;10.30;99.90;;;;;;5021960;28;20777;-71
2020/12/22 14:17:26;;;;;;;5.77;1.80;;;10.30;99.90;;;;;;5017392;28;20579;-70
2020/12/22 14:20:14;;;;;;;4.40;1.17;;;10.20;99.90;;;;;;5028534;28;20697;-70
2020/12/22 14:22:59;;;;;;;6.30;1.50;;;10.30;99.90;;;;;;5019635;28;20678;-70
2020/12/22 14:25:43;;;;;;;7.10;1.60;;;10.20;99.90;;;;;;5039787;28;20665;-71